sensor_id;sensor_type;location;lat;lon;timestamp;P1;durP1;ratioP1;P2;durP2;ratioP2
3369;SDS011;42042;51.948;7.628;2023-07-22T00:00:30;14.40;;;12.33;;
3369;SDS011;42042;51.948;7.628;2023-07-22T00:02:57;15.40;;;12.47;;
3369;SDS011;42042;51.948;7.628;2023-07-22T00:05:25;20.67;;;11.90;;
3369;SDS011;42042;51.948;7.628;2023-07-22T00:07:53;15.63;;;11.77;;
3369;SDS011;42042;51.948;7.628;2023-07-22T00:10:20;18.23;;;13.40;;
3369;SDS011;42042;51.948;7.628;2023-07-22T00:12:47;17.03;;;11.00;;
3369;SDS011;42042;51.948;7.628;2023-07-22T00:15:14;13.93;;;10.90;;
3369;SDS011;42042;51.948;7.628;2023-07-22T00:17:42;22.60;;;11.17;;
3369;SDS011;42042;51.948;7.628;2023-07-22T00:20:10;19.80;;;11.30;;
3369;SDS011;42042;51.948;7.628;2023-07-22T00:22:38;15.83;;;11.60;;
3369;SDS011;42042;51.948;7.628;2023-07-22T00:25:07;14.50;;;11.70;;
3369;SDS011;42042;51.948;7.628;2023-07-22T00:27:36;16.27;;;11.43;;
3369;SDS011;42042;51.948;7.628;2023-07-22T00:30:03;17.70;;;12.83;;
3369;SDS011;42042;51.948;7.628;2023-07-22T00:32:31;16.00;;;11.70;;
3369;SDS011;42042;51.948;7.628;2023-07-22T00:34:58;20.10;;;11.70;;
3369;SDS011;42042;51.948;7.628;2023-07-22T00:37:25;14.93;;;12.93;;
3369;SDS011;42042;51.948;7.628;2023-07-22T00:39:54;14.43;;;11.23;;
3369;SDS011;42042;51.948;7.628;2023-07-22T00:42:21;15.97;;;12.07;;
3369;SDS011;42042;51.948;7.628;2023-07-22T00:44:48;14.90;;;11.27;;
3369;SDS011;42042;51.948;7.628;2023-07-22T00:47:15;14.77;;;11.03;;
3369;SDS011;42042;51.948;7.628;2023-07-22T00:49:43;12.80;;;11.43;;
3369;SDS011;42042;51.948;7.628;2023-07-22T00:52:10;16.10;;;11.17;;
3369;SDS011;42042;51.948;7.628;2023-07-22T00:54:38;17.70;;;9.80;;
3369;SDS011;42042;51.948;7.628;2023-07-22T00:57:07;13.33;;;10.63;;
3369;SDS011;42042;51.948;7.628;2023-07-22T00:59:34;15.77;;;11.57;;
3369;SDS011;42042;51.948;7.628;2023-07-22T01:02:01;16.83;;;10.37;;
3369;SDS011;42042;51.948;7.628;2023-07-22T01:04:29;15.70;;;11.77;;
3369;SDS011;42042;51.948;7.628;2023-07-22T01:06:57;17.60;;;11.73;;
3369;SDS011;42042;51.948;7.628;2023-07-22T01:09:24;15.70;;;11.07;;
3369;SDS011;42042;51.948;7.628;2023-07-22T01:11:51;17.73;;;12.53;;
3369;SDS011;42042;51.948;7.628;2023-07-22T01:14:20;13.87;;;10.40;;
3369;SDS011;42042;51.948;7.628;2023-07-22T01:16:47;20.03;;;11.37;;
3369;SDS011;42042;51.948;7.628;2023-07-22T01:19:14;18.97;;;11.07;;
3369;SDS011;42042;51.948;7.628;2023-07-22T01:21:43;16.90;;;10.43;;
3369;SDS011;42042;51.948;7.628;2023-07-22T01:24:13;19.30;;;11.73;;
3369;SDS011;42042;51.948;7.628;2023-07-22T01:26:41;17.10;;;11.07;;
3369;SDS011;42042;51.948;7.628;2023-07-22T01:29:09;21.17;;;10.90;;
3369;SDS011;42042;51.948;7.628;2023-07-22T01:31:37;18.77;;;10.40;;
3369;SDS011;42042;51.948;7.628;2023-07-22T01:34:05;17.03;;;10.87;;
3369;SDS011;42042;51.948;7.628;2023-07-22T01:36:32;12.67;;;9.33;;
3369;SDS011;42042;51.948;7.628;2023-07-22T01:38:59;17.87;;;11.47;;
3369;SDS011;42042;51.948;7.628;2023-07-22T01:41:29;14.93;;;11.67;;
3369;SDS011;42042;51.948;7.628;2023-07-22T01:43:56;14.60;;;10.50;;
3369;SDS011;42042;51.948;7.628;2023-07-22T01:46:23;22.47;;;11.53;;
3369;SDS011;42042;51.948;7.628;2023-07-22T01:48:50;21.57;;;11.40;;
3369;SDS011;42042;51.948;7.628;2023-07-22T01:51:17;22.33;;;11.57;;
3369;SDS011;42042;51.948;7.628;2023-07-22T01:53:45;15.50;;;11.60;;
3369;SDS011;42042;51.948;7.628;2023-07-22T01:56:12;13.73;;;10.50;;
3369;SDS011;42042;51.948;7.628;2023-07-22T01:58:41;16.80;;;11.23;;
3369;SDS011;42042;51.948;7.628;2023-07-22T02:01:08;13.93;;;10.87;;
3369;SDS011;42042;51.948;7.628;2023-07-22T02:03:38;17.50;;;11.70;;
3369;SDS011;42042;51.948;7.628;2023-07-22T02:06:06;14.70;;;12.63;;
3369;SDS011;42042;51.948;7.628;2023-07-22T02:08:33;15.03;;;10.77;;
3369;SDS011;42042;51.948;7.628;2023-07-22T02:11:01;17.93;;;11.47;;
3369;SDS011;42042;51.948;7.628;2023-07-22T02:13:29;15.27;;;11.77;;
3369;SDS011;42042;51.948;7.628;2023-07-22T02:15:58;16.97;;;11.40;;
3369;SDS011;42042;51.948;7.628;2023-07-22T02:18:25;17.70;;;12.63;;
3369;SDS011;42042;51.948;7.628;2023-07-22T02:20:53;14.23;;;12.00;;
3369;SDS011;42042;51.948;7.628;2023-07-22T02:23:21;14.97;;;10.77;;
3369;SDS011;42042;51.948;7.628;2023-07-22T02:25:48;12.40;;;11.03;;
3369;SDS011;42042;51.948;7.628;2023-07-22T02:28:16;16.80;;;12.00;;
3369;SDS011;42042;51.948;7.628;2023-07-22T02:30:46;12.53;;;11.07;;
3369;SDS011;42042;51.948;7.628;2023-07-22T02:33:14;16.10;;;12.07;;
3369;SDS011;42042;51.948;7.628;2023-07-22T02:35:42;16.80;;;11.30;;
3369;SDS011;42042;51.948;7.628;2023-07-22T02:38:09;15.23;;;11.63;;
3369;SDS011;42042;51.948;7.628;2023-07-22T02:40:36;11.17;;;9.90;;
3369;SDS011;42042;51.948;7.628;2023-07-22T02:43:04;13.13;;;9.90;;
3369;SDS011;42042;51.948;7.628;2023-07-22T02:45:32;16.80;;;12.10;;
3369;SDS011;42042;51.948;7.628;2023-07-22T02:47:59;16.80;;;11.20;;
3369;SDS011;42042;51.948;7.628;2023-07-22T02:50:28;13.57;;;11.13;;
3369;SDS011;42042;51.948;7.628;2023-07-22T02:52:55;19.77;;;11.77;;
3369;SDS011;42042;51.948;7.628;2023-07-22T02:55:22;16.10;;;11.83;;
3369;SDS011;42042;51.948;7.628;2023-07-22T02:57:49;20.80;;;12.30;;
3369;SDS011;42042;51.948;7.628;2023-07-22T03:00:17;17.30;;;11.73;;
3369;SDS011;42042;51.948;7.628;2023-07-22T03:02:48;21.30;;;11.67;;
3369;SDS011;42042;51.948;7.628;2023-07-22T03:05:17;21.10;;;11.97;;
3369;SDS011;42042;51.948;7.628;2023-07-22T03:07:46;17.70;;;11.60;;
3369;SDS011;42042;51.948;7.628;2023-07-22T03:10:13;30.40;;;14.37;;
3369;SDS011;42042;51.948;7.628;2023-07-22T03:12:40;16.70;;;12.10;;
3369;SDS011;42042;51.948;7.628;2023-07-22T03:15:08;18.47;;;12.17;;
3369;SDS011;42042;51.948;7.628;2023-07-22T03:17:38;20.30;;;12.40;;
3369;SDS011;42042;51.948;7.628;2023-07-22T03:20:07;17.67;;;12.40;;
3369;SDS011;42042;51.948;7.628;2023-07-22T03:22:38;22.00;;;13.03;;
3369;SDS011;42042;51.948;7.628;2023-07-22T03:25:07;26.67;;;13.57;;
3369;SDS011;42042;51.948;7.628;2023-07-22T03:27:35;22.23;;;14.30;;
3369;SDS011;42042;51.948;7.628;2023-07-22T03:30:02;20.73;;;14.20;;
3369;SDS011;42042;51.948;7.628;2023-07-22T03:32:31;23.00;;;13.37;;
3369;SDS011;42042;51.948;7.628;2023-07-22T03:34:59;22.83;;;15.20;;
3369;SDS011;42042;51.948;7.628;2023-07-22T03:37:28;26.60;;;15.93;;
3369;SDS011;42042;51.948;7.628;2023-07-22T03:39:55;20.30;;;13.90;;
3369;SDS011;42042;51.948;7.628;2023-07-22T03:42:24;20.00;;;15.00;;
3369;SDS011;42042;51.948;7.628;2023-07-22T03:44:51;21.80;;;13.73;;
3369;SDS011;42042;51.948;7.628;2023-07-22T03:47:19;17.43;;;12.80;;
3369;SDS011;42042;51.948;7.628;2023-07-22T03:49:46;25.63;;;15.07;;
3369;SDS011;42042;51.948;7.628;2023-07-22T03:52:13;20.37;;;14.93;;
3369;SDS011;42042;51.948;7.628;2023-07-22T03:54:43;22.33;;;14.77;;
3369;SDS011;42042;51.948;7.628;2023-07-22T03:57:10;21.23;;;13.60;;
3369;SDS011;42042;51.948;7.628;2023-07-22T03:59:40;19.13;;;14.70;;
3369;SDS011;42042;51.948;7.628;2023-07-22T04:02:07;18.40;;;13.10;;
3369;SDS011;42042;51.948;7.628;2023-07-22T04:04:34;21.20;;;14.70;;
3369;SDS011;42042;51.948;7.628;2023-07-22T04:07:01;18.60;;;12.80;;
3369;SDS011;42042;51.948;7.628;2023-07-22T04:09:32;19.20;;;13.77;;
3369;SDS011;42042;51.948;7.628;2023-07-22T04:12:00;23.50;;;14.60;;
3369;SDS011;42042;51.948;7.628;2023-07-22T04:14:27;20.13;;;13.70;;
3369;SDS011;42042;51.948;7.628;2023-07-22T04:16:55;17.17;;;13.50;;
3369;SDS011;42042;51.948;7.628;2023-07-22T04:19:23;25.00;;;14.70;;
3369;SDS011;42042;51.948;7.628;2023-07-22T04:21:50;22.90;;;14.67;;
3369;SDS011;42042;51.948;7.628;2023-07-22T04:24:18;18.30;;;13.33;;
3369;SDS011;42042;51.948;7.628;2023-07-22T04:26:45;25.27;;;15.27;;
3369;SDS011;42042;51.948;7.628;2023-07-22T04:29:12;24.07;;;15.17;;
3369;SDS011;42042;51.948;7.628;2023-07-22T04:31:39;21.03;;;13.73;;
3369;SDS011;42042;51.948;7.628;2023-07-22T04:34:08;19.83;;;13.53;;
3369;SDS011;42042;51.948;7.628;2023-07-22T04:36:37;21.20;;;15.27;;
3369;SDS011;42042;51.948;7.628;2023-07-22T04:39:04;18.93;;;14.40;;
3369;SDS011;42042;51.948;7.628;2023-07-22T04:41:32;23.10;;;14.93;;
3369;SDS011;42042;51.948;7.628;2023-07-22T04:43:59;22.77;;;15.07;;
3369;SDS011;42042;51.948;7.628;2023-07-22T04:46:26;21.97;;;14.70;;
3369;SDS011;42042;51.948;7.628;2023-07-22T04:48:55;19.30;;;15.27;;
3369;SDS011;42042;51.948;7.628;2023-07-22T04:51:24;18.30;;;14.13;;
3369;SDS011;42042;51.948;7.628;2023-07-22T04:53:52;21.87;;;13.97;;
3369;SDS011;42042;51.948;7.628;2023-07-22T04:56:19;24.87;;;14.03;;
3369;SDS011;42042;51.948;7.628;2023-07-22T04:58:46;18.80;;;13.80;;
3369;SDS011;42042;51.948;7.628;2023-07-22T05:01:14;18.30;;;13.07;;
3369;SDS011;42042;51.948;7.628;2023-07-22T05:03:42;20.17;;;14.50;;
3369;SDS011;42042;51.948;7.628;2023-07-22T05:06:09;24.43;;;14.70;;
3369;SDS011;42042;51.948;7.628;2023-07-22T05:08:38;20.83;;;14.87;;
3369;SDS011;42042;51.948;7.628;2023-07-22T05:11:06;21.67;;;14.50;;
3369;SDS011;42042;51.948;7.628;2023-07-22T05:13:33;18.30;;;13.30;;
3369;SDS011;42042;51.948;7.628;2023-07-22T05:16:01;25.00;;;16.33;;
3369;SDS011;42042;51.948;7.628;2023-07-22T05:18:28;21.37;;;13.40;;
3369;SDS011;42042;51.948;7.628;2023-07-22T05:20:55;21.87;;;15.70;;
3369;SDS011;42042;51.948;7.628;2023-07-22T05:23:22;23.80;;;15.23;;
3369;SDS011;42042;51.948;7.628;2023-07-22T05:25:54;25.27;;;15.43;;
3369;SDS011;42042;51.948;7.628;2023-07-22T05:28:21;15.90;;;13.30;;
3369;SDS011;42042;51.948;7.628;2023-07-22T05:30:48;19.43;;;13.70;;
3369;SDS011;42042;51.948;7.628;2023-07-22T05:33:15;21.57;;;13.80;;
3369;SDS011;42042;51.948;7.628;2023-07-22T05:35:42;18.67;;;13.43;;
3369;SDS011;42042;51.948;7.628;2023-07-22T05:38:10;18.50;;;12.93;;
3369;SDS011;42042;51.948;7.628;2023-07-22T05:40:37;16.93;;;12.80;;
3369;SDS011;42042;51.948;7.628;2023-07-22T05:43:05;17.33;;;13.23;;
3369;SDS011;42042;51.948;7.628;2023-07-22T05:45:33;18.17;;;14.33;;
3369;SDS011;42042;51.948;7.628;2023-07-22T05:48:00;18.97;;;13.60;;
3369;SDS011;42042;51.948;7.628;2023-07-22T05:50:27;21.80;;;15.30;;
3369;SDS011;42042;51.948;7.628;2023-07-22T05:52:54;17.67;;;13.07;;
3369;SDS011;42042;51.948;7.628;2023-07-22T05:55:21;15.33;;;13.00;;
3369;SDS011;42042;51.948;7.628;2023-07-22T05:57:49;19.47;;;13.03;;
3369;SDS011;42042;51.948;7.628;2023-07-22T06:00:17;22.50;;;15.20;;
3369;SDS011;42042;51.948;7.628;2023-07-22T06:02:44;18.27;;;13.33;;
3369;SDS011;42042;51.948;7.628;2023-07-22T06:05:11;19.87;;;14.13;;
3369;SDS011;42042;51.948;7.628;2023-07-22T06:07:39;17.57;;;14.73;;
3369;SDS011;42042;51.948;7.628;2023-07-22T06:10:06;18.30;;;13.30;;
3369;SDS011;42042;51.948;7.628;2023-07-22T06:12:34;16.70;;;13.60;;
3369;SDS011;42042;51.948;7.628;2023-07-22T06:15:01;16.30;;;13.03;;
3369;SDS011;42042;51.948;7.628;2023-07-22T06:17:30;18.77;;;11.80;;
3369;SDS011;42042;51.948;7.628;2023-07-22T06:19:57;17.23;;;12.70;;
3369;SDS011;42042;51.948;7.628;2023-07-22T06:22:24;16.40;;;12.43;;
3369;SDS011;42042;51.948;7.628;2023-07-22T06:24:51;16.33;;;12.73;;
3369;SDS011;42042;51.948;7.628;2023-07-22T06:27:19;26.17;;;12.87;;
3369;SDS011;42042;51.948;7.628;2023-07-22T06:29:46;18.57;;;14.07;;
3369;SDS011;42042;51.948;7.628;2023-07-22T06:32:13;19.50;;;13.47;;
3369;SDS011;42042;51.948;7.628;2023-07-22T06:34:41;17.13;;;12.00;;
3369;SDS011;42042;51.948;7.628;2023-07-22T06:37:09;14.90;;;12.40;;
3369;SDS011;42042;51.948;7.628;2023-07-22T06:39:36;16.50;;;12.77;;
3369;SDS011;42042;51.948;7.628;2023-07-22T06:42:03;22.50;;;13.87;;
3369;SDS011;42042;51.948;7.628;2023-07-22T06:44:30;21.03;;;12.60;;
3369;SDS011;42042;51.948;7.628;2023-07-22T06:46:58;16.10;;;12.73;;
3369;SDS011;42042;51.948;7.628;2023-07-22T06:49:25;17.20;;;12.33;;
3369;SDS011;42042;51.948;7.628;2023-07-22T06:51:53;19.87;;;13.63;;
3369;SDS011;42042;51.948;7.628;2023-07-22T06:54:21;17.47;;;13.50;;
3369;SDS011;42042;51.948;7.628;2023-07-22T06:56:48;16.23;;;13.30;;
3369;SDS011;42042;51.948;7.628;2023-07-22T06:59:15;21.03;;;13.03;;
3369;SDS011;42042;51.948;7.628;2023-07-22T07:01:42;19.70;;;13.10;;
3369;SDS011;42042;51.948;7.628;2023-07-22T07:04:09;16.57;;;12.57;;
3369;SDS011;42042;51.948;7.628;2023-07-22T07:06:36;18.83;;;12.60;;
3369;SDS011;42042;51.948;7.628;2023-07-22T07:09:05;18.40;;;14.67;;
3369;SDS011;42042;51.948;7.628;2023-07-22T07:11:32;21.20;;;14.43;;
3369;SDS011;42042;51.948;7.628;2023-07-22T07:14:00;19.00;;;13.40;;
3369;SDS011;42042;51.948;7.628;2023-07-22T07:16:28;18.63;;;13.53;;
3369;SDS011;42042;51.948;7.628;2023-07-22T07:18:56;18.10;;;12.00;;
3369;SDS011;42042;51.948;7.628;2023-07-22T07:21:24;22.20;;;14.83;;
3369;SDS011;42042;51.948;7.628;2023-07-22T07:23:51;19.30;;;13.07;;
3369;SDS011;42042;51.948;7.628;2023-07-22T07:26:20;19.50;;;13.20;;
3369;SDS011;42042;51.948;7.628;2023-07-22T07:28:47;19.67;;;12.97;;
3369;SDS011;42042;51.948;7.628;2023-07-22T07:31:15;21.63;;;14.50;;
3369;SDS011;42042;51.948;7.628;2023-07-22T07:33:43;22.77;;;14.20;;
3369;SDS011;42042;51.948;7.628;2023-07-22T07:36:10;25.37;;;14.97;;
3369;SDS011;42042;51.948;7.628;2023-07-22T07:38:37;20.77;;;14.23;;
3369;SDS011;42042;51.948;7.628;2023-07-22T07:41:05;20.00;;;14.67;;
3369;SDS011;42042;51.948;7.628;2023-07-22T07:43:35;18.80;;;14.33;;
3369;SDS011;42042;51.948;7.628;2023-07-22T07:46:12;21.67;;;15.60;;
3369;SDS011;42042;51.948;7.628;2023-07-22T07:48:39;21.73;;;15.03;;
3369;SDS011;42042;51.948;7.628;2023-07-22T07:51:06;31.97;;;15.67;;
3369;SDS011;42042;51.948;7.628;2023-07-22T07:53:33;22.73;;;16.30;;
3369;SDS011;42042;51.948;7.628;2023-07-22T07:56:01;20.37;;;14.73;;
3369;SDS011;42042;51.948;7.628;2023-07-22T07:58:27;23.33;;;15.80;;
3369;SDS011;42042;51.948;7.628;2023-07-22T08:00:55;24.50;;;15.13;;
3369;SDS011;42042;51.948;7.628;2023-07-22T08:03:23;19.77;;;14.90;;
3369;SDS011;42042;51.948;7.628;2023-07-22T08:05:50;22.20;;;14.03;;
3369;SDS011;42042;51.948;7.628;2023-07-22T08:08:17;21.40;;;14.17;;
3369;SDS011;42042;51.948;7.628;2023-07-22T08:10:44;20.73;;;14.03;;
3369;SDS011;42042;51.948;7.628;2023-07-22T08:13:11;19.70;;;13.30;;
3369;SDS011;42042;51.948;7.628;2023-07-22T08:15:39;23.00;;;14.83;;
3369;SDS011;42042;51.948;7.628;2023-07-22T08:18:09;20.63;;;14.00;;
3369;SDS011;42042;51.948;7.628;2023-07-22T08:20:36;23.70;;;15.90;;
3369;SDS011;42042;51.948;7.628;2023-07-22T08:23:03;19.20;;;13.30;;
3369;SDS011;42042;51.948;7.628;2023-07-22T08:25:31;18.07;;;12.50;;
3369;SDS011;42042;51.948;7.628;2023-07-22T08:27:58;20.57;;;11.70;;
3369;SDS011;42042;51.948;7.628;2023-07-22T08:30:25;14.73;;;11.47;;
3369;SDS011;42042;51.948;7.628;2023-07-22T08:32:52;15.83;;;10.83;;
3369;SDS011;42042;51.948;7.628;2023-07-22T08:35:21;16.70;;;10.70;;
3369;SDS011;42042;51.948;7.628;2023-07-22T08:37:48;13.80;;;10.60;;
3369;SDS011;42042;51.948;7.628;2023-07-22T08:40:15;14.70;;;11.17;;
3369;SDS011;42042;51.948;7.628;2023-07-22T08:42:43;15.93;;;11.47;;
3369;SDS011;42042;51.948;7.628;2023-07-22T08:45:11;15.33;;;10.33;;
3369;SDS011;42042;51.948;7.628;2023-07-22T08:47:45;15.93;;;11.03;;
3369;SDS011;42042;51.948;7.628;2023-07-22T08:50:14;18.40;;;12.20;;
3369;SDS011;42042;51.948;7.628;2023-07-22T08:52:43;16.07;;;11.73;;
3369;SDS011;42042;51.948;7.628;2023-07-22T08:55:11;17.57;;;12.00;;
3369;SDS011;42042;51.948;7.628;2023-07-22T08:57:38;14.83;;;11.27;;
3369;SDS011;42042;51.948;7.628;2023-07-22T09:00:06;16.70;;;12.13;;
3369;SDS011;42042;51.948;7.628;2023-07-22T09:02:34;15.20;;;12.00;;
3369;SDS011;42042;51.948;7.628;2023-07-22T09:05:01;13.97;;;11.97;;
3369;SDS011;42042;51.948;7.628;2023-07-22T09:07:29;17.20;;;13.03;;
3369;SDS011;42042;51.948;7.628;2023-07-22T09:09:57;17.53;;;13.13;;
3369;SDS011;42042;51.948;7.628;2023-07-22T09:12:25;15.53;;;11.67;;
3369;SDS011;42042;51.948;7.628;2023-07-22T09:14:52;12.70;;;11.40;;
3369;SDS011;42042;51.948;7.628;2023-07-22T09:17:19;12.77;;;10.10;;
3369;SDS011;42042;51.948;7.628;2023-07-22T09:19:47;12.90;;;10.77;;
3369;SDS011;42042;51.948;7.628;2023-07-22T09:22:18;15.83;;;10.20;;
3369;SDS011;42042;51.948;7.628;2023-07-22T09:24:45;16.00;;;10.60;;
3369;SDS011;42042;51.948;7.628;2023-07-22T09:27:14;10.93;;;9.47;;
3369;SDS011;42042;51.948;7.628;2023-07-22T09:29:41;11.57;;;9.40;;
3369;SDS011;42042;51.948;7.628;2023-07-22T09:32:09;13.63;;;9.67;;
3369;SDS011;42042;51.948;7.628;2023-07-22T09:34:37;9.93;;;8.37;;
3369;SDS011;42042;51.948;7.628;2023-07-22T09:37:04;10.13;;;8.50;;
3369;SDS011;42042;51.948;7.628;2023-07-22T09:39:31;11.83;;;9.67;;
3369;SDS011;42042;51.948;7.628;2023-07-22T09:41:58;13.03;;;9.90;;
3369;SDS011;42042;51.948;7.628;2023-07-22T09:44:29;10.80;;;8.87;;
3369;SDS011;42042;51.948;7.628;2023-07-22T09:46:57;13.70;;;9.63;;
3369;SDS011;42042;51.948;7.628;2023-07-22T09:49:24;13.00;;;9.70;;
3369;SDS011;42042;51.948;7.628;2023-07-22T09:51:52;13.33;;;10.60;;
3369;SDS011;42042;51.948;7.628;2023-07-22T09:54:19;13.50;;;9.03;;
3369;SDS011;42042;51.948;7.628;2023-07-22T09:56:47;11.43;;;8.97;;
3369;SDS011;42042;51.948;7.628;2023-07-22T09:59:14;8.57;;;7.67;;
3369;SDS011;42042;51.948;7.628;2023-07-22T10:01:46;9.43;;;6.73;;
3369;SDS011;42042;51.948;7.628;2023-07-22T10:04:15;8.33;;;6.80;;
3369;SDS011;42042;51.948;7.628;2023-07-22T10:06:43;9.00;;;8.10;;
3369;SDS011;42042;51.948;7.628;2023-07-22T10:09:10;7.87;;;7.00;;
3369;SDS011;42042;51.948;7.628;2023-07-22T10:11:38;10.57;;;7.73;;
3369;SDS011;42042;51.948;7.628;2023-07-22T10:14:06;7.57;;;5.90;;
3369;SDS011;42042;51.948;7.628;2023-07-22T10:16:33;10.13;;;7.20;;
3369;SDS011;42042;51.948;7.628;2023-07-22T10:19:02;8.73;;;7.23;;
3369;SDS011;42042;51.948;7.628;2023-07-22T10:21:31;8.27;;;7.37;;
3369;SDS011;42042;51.948;7.628;2023-07-22T10:23:59;7.50;;;6.80;;
3369;SDS011;42042;51.948;7.628;2023-07-22T10:26:27;8.73;;;6.80;;
3369;SDS011;42042;51.948;7.628;2023-07-22T10:28:55;10.70;;;8.30;;
3369;SDS011;42042;51.948;7.628;2023-07-22T10:31:22;10.00;;;7.87;;
3369;SDS011;42042;51.948;7.628;2023-07-22T10:33:49;8.30;;;7.50;;
3369;SDS011;42042;51.948;7.628;2023-07-22T10:36:19;8.93;;;7.80;;
3369;SDS011;42042;51.948;7.628;2023-07-22T10:38:55;8.63;;;6.83;;
3369;SDS011;42042;51.948;7.628;2023-07-22T10:41:22;8.10;;;6.97;;
3369;SDS011;42042;51.948;7.628;2023-07-22T10:43:56;8.30;;;6.17;;
3369;SDS011;42042;51.948;7.628;2023-07-22T10:46:33;7.33;;;6.00;;
3369;SDS011;42042;51.948;7.628;2023-07-22T10:49:09;7.80;;;6.50;;
3369;SDS011;42042;51.948;7.628;2023-07-22T10:51:38;8.03;;;6.00;;
3369;SDS011;42042;51.948;7.628;2023-07-22T10:54:10;8.53;;;5.90;;
3369;SDS011;42042;51.948;7.628;2023-07-22T10:56:37;6.27;;;5.67;;
3369;SDS011;42042;51.948;7.628;2023-07-22T10:59:05;9.20;;;5.77;;
3369;SDS011;42042;51.948;7.628;2023-07-22T11:01:35;8.80;;;6.60;;
3369;SDS011;42042;51.948;7.628;2023-07-22T11:04:06;6.83;;;6.07;;
3369;SDS011;42042;51.948;7.628;2023-07-22T11:06:35;8.37;;;5.40;;
3369;SDS011;42042;51.948;7.628;2023-07-22T11:09:03;6.73;;;6.10;;
3369;SDS011;42042;51.948;7.628;2023-07-22T11:11:37;9.63;;;6.57;;
3369;SDS011;42042;51.948;7.628;2023-07-22T11:14:14;7.30;;;6.47;;
3369;SDS011;42042;51.948;7.628;2023-07-22T11:16:42;6.40;;;5.73;;
3369;SDS011;42042;51.948;7.628;2023-07-22T11:19:09;8.03;;;5.73;;
3369;SDS011;42042;51.948;7.628;2023-07-22T11:21:37;9.10;;;6.70;;
3369;SDS011;42042;51.948;7.628;2023-07-22T11:24:05;8.63;;;6.67;;
3369;SDS011;42042;51.948;7.628;2023-07-22T11:26:33;8.97;;;6.70;;
3369;SDS011;42042;51.948;7.628;2023-07-22T11:29:00;9.53;;;6.13;;
3369;SDS011;42042;51.948;7.628;2023-07-22T11:31:31;6.87;;;6.17;;
3369;SDS011;42042;51.948;7.628;2023-07-22T11:33:59;7.50;;;5.80;;
3369;SDS011;42042;51.948;7.628;2023-07-22T11:36:26;7.30;;;5.37;;
3369;SDS011;42042;51.948;7.628;2023-07-22T11:38:53;7.20;;;5.60;;
3369;SDS011;42042;51.948;7.628;2023-07-22T11:41:22;8.07;;;5.83;;
3369;SDS011;42042;51.948;7.628;2023-07-22T11:43:49;7.40;;;6.47;;
3369;SDS011;42042;51.948;7.628;2023-07-22T11:46:17;7.00;;;6.10;;
3369;SDS011;42042;51.948;7.628;2023-07-22T11:48:50;7.53;;;6.57;;
3369;SDS011;42042;51.948;7.628;2023-07-22T11:51:18;8.00;;;7.07;;
3369;SDS011;42042;51.948;7.628;2023-07-22T11:53:46;8.57;;;6.53;;
3369;SDS011;42042;51.948;7.628;2023-07-22T11:56:18;7.80;;;6.30;;
3369;SDS011;42042;51.948;7.628;2023-07-22T11:58:50;6.90;;;6.13;;
3369;SDS011;42042;51.948;7.628;2023-07-22T12:01:17;7.40;;;6.70;;
3369;SDS011;42042;51.948;7.628;2023-07-22T12:03:45;6.97;;;6.27;;
3369;SDS011;42042;51.948;7.628;2023-07-22T12:06:13;12.50;;;6.37;;
3369;SDS011;42042;51.948;7.628;2023-07-22T12:08:43;6.57;;;5.97;;
3369;SDS011;42042;51.948;7.628;2023-07-22T12:11:17;6.73;;;6.13;;
3369;SDS011;42042;51.948;7.628;2023-07-22T12:13:44;7.30;;;6.30;;
3369;SDS011;42042;51.948;7.628;2023-07-22T12:16:20;8.80;;;6.07;;
3369;SDS011;42042;51.948;7.628;2023-07-22T12:18:48;6.30;;;5.70;;
3369;SDS011;42042;51.948;7.628;2023-07-22T12:21:15;5.90;;;5.30;;
3369;SDS011;42042;51.948;7.628;2023-07-22T12:23:42;6.53;;;4.80;;
3369;SDS011;42042;51.948;7.628;2023-07-22T12:26:09;6.17;;;5.03;;
3369;SDS011;42042;51.948;7.628;2023-07-22T12:28:37;5.50;;;4.50;;
3369;SDS011;42042;51.948;7.628;2023-07-22T12:31:04;6.50;;;4.50;;
3369;SDS011;42042;51.948;7.628;2023-07-22T12:33:32;7.43;;;4.80;;
3369;SDS011;42042;51.948;7.628;2023-07-22T12:36:00;5.80;;;5.20;;
3369;SDS011;42042;51.948;7.628;2023-07-22T12:38:27;6.50;;;4.77;;
3369;SDS011;42042;51.948;7.628;2023-07-22T12:40:54;5.67;;;5.17;;
3369;SDS011;42042;51.948;7.628;2023-07-22T12:43:21;6.90;;;5.70;;
3369;SDS011;42042;51.948;7.628;2023-07-22T12:45:48;5.63;;;5.13;;
3369;SDS011;42042;51.948;7.628;2023-07-22T12:48:16;6.43;;;5.83;;
3369;SDS011;42042;51.948;7.628;2023-07-22T12:50:44;5.50;;;5.00;;
3369;SDS011;42042;51.948;7.628;2023-07-22T12:53:12;8.33;;;5.10;;
3369;SDS011;42042;51.948;7.628;2023-07-22T12:55:39;5.00;;;4.27;;
3369;SDS011;42042;51.948;7.628;2023-07-22T12:58:07;5.27;;;4.77;;
3369;SDS011;42042;51.948;7.628;2023-07-22T13:00:34;5.10;;;4.70;;
3369;SDS011;42042;51.948;7.628;2023-07-22T13:03:01;4.97;;;4.47;;
3369;SDS011;42042;51.948;7.628;2023-07-22T13:05:28;4.47;;;4.07;;
3369;SDS011;42042;51.948;7.628;2023-07-22T13:07:57;4.03;;;3.73;;
3369;SDS011;42042;51.948;7.628;2023-07-22T13:10:26;4.67;;;4.10;;
3369;SDS011;42042;51.948;7.628;2023-07-22T13:12:53;5.77;;;4.10;;
3369;SDS011;42042;51.948;7.628;2023-07-22T13:15:21;4.50;;;4.10;;
3369;SDS011;42042;51.948;7.628;2023-07-22T13:17:48;5.43;;;4.00;;
3369;SDS011;42042;51.948;7.628;2023-07-22T13:20:15;4.30;;;3.90;;
3369;SDS011;42042;51.948;7.628;2023-07-22T13:22:42;4.63;;;4.17;;
3369;SDS011;42042;51.948;7.628;2023-07-22T13:25:11;5.57;;;4.07;;
3369;SDS011;42042;51.948;7.628;2023-07-22T13:27:38;4.50;;;4.10;;
3369;SDS011;42042;51.948;7.628;2023-07-22T13:30:06;4.27;;;3.83;;
3369;SDS011;42042;51.948;7.628;2023-07-22T13:32:33;4.50;;;4.10;;
3369;SDS011;42042;51.948;7.628;2023-07-22T13:35:00;4.70;;;3.93;;
3369;SDS011;42042;51.948;7.628;2023-07-22T13:37:29;3.73;;;3.43;;
3369;SDS011;42042;51.948;7.628;2023-07-22T13:39:56;3.90;;;3.60;;
3369;SDS011;42042;51.948;7.628;2023-07-22T13:42:25;3.77;;;3.47;;
3369;SDS011;42042;51.948;7.628;2023-07-22T13:44:52;5.83;;;3.67;;
3369;SDS011;42042;51.948;7.628;2023-07-22T13:47:19;4.43;;;3.40;;
3369;SDS011;42042;51.948;7.628;2023-07-22T13:49:46;6.67;;;3.97;;
3369;SDS011;42042;51.948;7.628;2023-07-22T13:52:13;5.30;;;3.57;;
3369;SDS011;42042;51.948;7.628;2023-07-22T13:54:40;5.63;;;3.97;;
3369;SDS011;42042;51.948;7.628;2023-07-22T13:57:08;5.53;;;4.00;;
3369;SDS011;42042;51.948;7.628;2023-07-22T13:59:36;4.40;;;3.20;;
3369;SDS011;42042;51.948;7.628;2023-07-22T14:02:04;4.30;;;3.90;;
3369;SDS011;42042;51.948;7.628;2023-07-22T14:04:31;4.97;;;3.73;;
3369;SDS011;42042;51.948;7.628;2023-07-22T14:06:58;3.73;;;3.30;;
3369;SDS011;42042;51.948;7.628;2023-07-22T14:09:25;6.00;;;3.70;;
3369;SDS011;42042;51.948;7.628;2023-07-22T14:11:52;3.57;;;3.27;;
3369;SDS011;42042;51.948;7.628;2023-07-22T14:14:19;4.43;;;4.03;;
3369;SDS011;42042;51.948;7.628;2023-07-22T14:16:54;4.77;;;3.90;;
3369;SDS011;42042;51.948;7.628;2023-07-22T14:19:21;3.83;;;3.47;;
3369;SDS011;42042;51.948;7.628;2023-07-22T14:21:49;3.40;;;3.10;;
3369;SDS011;42042;51.948;7.628;2023-07-22T14:24:16;3.93;;;3.57;;
3369;SDS011;42042;51.948;7.628;2023-07-22T14:26:43;3.17;;;2.87;;
3369;SDS011;42042;51.948;7.628;2023-07-22T14:29:10;2.90;;;2.67;;
3369;SDS011;42042;51.948;7.628;2023-07-22T14:31:37;6.33;;;3.17;;
3369;SDS011;42042;51.948;7.628;2023-07-22T14:34:06;2.80;;;2.60;;
3369;SDS011;42042;51.948;7.628;2023-07-22T14:36:33;3.00;;;2.80;;
3369;SDS011;42042;51.948;7.628;2023-07-22T14:39:00;3.07;;;2.80;;
3369;SDS011;42042;51.948;7.628;2023-07-22T14:41:28;3.40;;;3.10;;
3369;SDS011;42042;51.948;7.628;2023-07-22T14:43:56;3.13;;;2.83;;
3369;SDS011;42042;51.948;7.628;2023-07-22T14:46:23;3.80;;;3.50;;